MTN8310 KMVY-KEWR
Flight info
| Callsign | MTN8310 |
|---|---|
| Flight time | 1h 24m |
| Altitude | 8000 |
| Route | MVY V146 PVD V167 HFD V3 CMK V623 SAX/N0151F090 |
| Aircraft | C208/L-SDF/C |
Departure
| Time | 2026-05-05 11:11 |
|---|---|
| Airport | Martha's Vineyard Airport (KMVY) |
Arrival
| Time | 2026-05-05 12:35 |
|---|---|
| Airport | Newark Liberty International Airport (KEWR) |
| Time | Latitude | Longitude | Altitude | Speed | Heading |
|---|---|---|---|---|---|
| 2026-05-05 11:05 | 41.38854 | -70.61478 | 61 ft | 0 kts | 221° |
| 2026-05-05 11:09 | 41.38863 | -70.61493 | 66 ft | 16 kts | 357° |
| 2026-05-05 11:09 | 41.39041 | -70.61321 | 65 ft | 36 kts | 42° |
| 2026-05-05 11:09 | 41.39248 | -70.61084 | 66 ft | 43 kts | 41° |
| 2026-05-05 11:09 | 41.39492 | -70.60803 | 63 ft | 50 kts | 41° |
| 2026-05-05 11:10 | 41.39678 | -70.60614 | 60 ft | 13 kts | 339° |
| 2026-05-05 11:10 | 41.39733 | -70.60717 | 67 ft | 17 kts | 254° |
| 2026-05-05 11:10 | 41.39596 | -70.60883 | 67 ft | 49 kts | 221° |
| 2026-05-05 11:10 | 41.39199 | -70.61342 | 125 ft | 92 kts | 220° |
| 2026-05-05 11:11 | 41.38784 | -70.61971 | 497 ft | 91 kts | 244° |
| 2026-05-05 11:11 | 41.38826 | -70.62933 | 647 ft | 114 kts | 286° |
| 2026-05-05 11:11 | 41.39092 | -70.63922 | 1033 ft | 109 kts | 281° |
| 2026-05-05 11:11 | 41.39196 | -70.64924 | 1399 ft | 107 kts | 270° |
| 2026-05-05 11:12 | 41.39167 | -70.65900 | 1668 ft | 113 kts | 252° |
| 2026-05-05 11:12 | 41.39140 | -70.67032 | 1745 ft | 137 kts | 282° |
| 2026-05-05 11:12 | 41.39694 | -70.68101 | 2002 ft | 141 kts | 300° |
| 2026-05-05 11:12 | 41.40246 | -70.69140 | 2259 ft | 134 kts | 294° |
| 2026-05-05 11:13 | 41.40770 | -70.70157 | 2510 ft | 132 kts | 294° |
| 2026-05-05 11:13 | 41.41280 | -70.71152 | 2764 ft | 129 kts | 292° |
| 2026-05-05 11:13 | 41.41775 | -70.72131 | 3032 ft | 126 kts | 291° |
| 2026-05-05 11:13 | 41.42253 | -70.73077 | 3300 ft | 121 kts | 289° |
| 2026-05-05 11:14 | 41.42718 | -70.74000 | 3568 ft | 119 kts | 291° |
| 2026-05-05 11:14 | 41.43188 | -70.74913 | 3844 ft | 119 kts | 291° |
| 2026-05-05 11:14 | 41.43647 | -70.75824 | 4115 ft | 119 kts | 291° |
| 2026-05-05 11:14 | 41.44102 | -70.76726 | 4383 ft | 118 kts | 291° |
| 2026-05-05 11:15 | 41.44560 | -70.77637 | 4656 ft | 118 kts | 291° |
| 2026-05-05 11:15 | 41.45020 | -70.78550 | 4931 ft | 118 kts | 291° |
| 2026-05-05 11:15 | 41.45471 | -70.79449 | 5202 ft | 117 kts | 291° |
| 2026-05-05 11:15 | 41.45921 | -70.80345 | 5475 ft | 116 kts | 291° |
| 2026-05-05 11:16 | 41.46370 | -70.81237 | 5749 ft | 115 kts | 291° |
| 2026-05-05 11:16 | 41.46813 | -70.82121 | 6022 ft | 114 kts | 292° |
| 2026-05-05 11:16 | 41.47256 | -70.83001 | 6295 ft | 114 kts | 291° |
| 2026-05-05 11:16 | 41.47695 | -70.83877 | 6566 ft | 113 kts | 292° |
| 2026-05-05 11:17 | 41.48135 | -70.84750 | 6837 ft | 113 kts | 292° |
| 2026-05-05 11:17 | 41.48575 | -70.85625 | 7109 ft | 114 kts | 292° |
| 2026-05-05 11:17 | 41.49015 | -70.86501 | 7383 ft | 113 kts | 292° |
| 2026-05-05 11:17 | 41.49452 | -70.87372 | 7656 ft | 113 kts | 293° |
| 2026-05-05 11:18 | 41.49887 | -70.88241 | 7906 ft | 115 kts | 293° |
| 2026-05-05 11:18 | 41.50355 | -70.89195 | 7939 ft | 130 kts | 294° |
| 2026-05-05 11:18 | 41.50866 | -70.90223 | 7977 ft | 139 kts | 294° |
| 2026-05-05 11:18 | 41.51421 | -70.91338 | 7980 ft | 146 kts | 295° |
| 2026-05-05 11:19 | 41.51985 | -70.92472 | 7980 ft | 150 kts | 295° |
| 2026-05-05 11:19 | 41.52568 | -70.93640 | 7980 ft | 152 kts | 295° |
| 2026-05-05 11:19 | 41.53157 | -70.94818 | 7980 ft | 153 kts | 295° |
| 2026-05-05 11:19 | 41.53676 | -70.96048 | 7968 ft | 152 kts | 289° |
| 2026-05-05 11:20 | 41.54174 | -70.97299 | 7968 ft | 153 kts | 290° |
| 2026-05-05 11:20 | 41.54679 | -70.98549 | 7968 ft | 152 kts | 290° |
| 2026-05-05 11:20 | 41.55183 | -70.99797 | 7967 ft | 153 kts | 290° |
| 2026-05-05 11:20 | 41.55685 | -71.01044 | 7965 ft | 153 kts | 290° |
| 2026-05-05 11:21 | 41.56186 | -71.02292 | 7966 ft | 153 kts | 290° |
| 2026-05-05 11:21 | 41.56688 | -71.03545 | 7965 ft | 153 kts | 290° |
| 2026-05-05 11:21 | 41.57190 | -71.04796 | 7963 ft | 153 kts | 290° |
| 2026-05-05 11:21 | 41.57693 | -71.06048 | 7961 ft | 153 kts | 290° |
| 2026-05-05 11:22 | 41.58195 | -71.07297 | 7960 ft | 153 kts | 290° |
| 2026-05-05 11:22 | 41.58691 | -71.08535 | 7970 ft | 152 kts | 290° |
| 2026-05-05 11:22 | 41.59190 | -71.09780 | 7970 ft | 152 kts | 290° |
| 2026-05-05 11:22 | 41.59688 | -71.11027 | 7963 ft | 152 kts | 290° |
| 2026-05-05 11:23 | 41.60187 | -71.12271 | 7960 ft | 152 kts | 290° |
| 2026-05-05 11:23 | 41.60686 | -71.13520 | 7957 ft | 152 kts | 290° |
| 2026-05-05 11:23 | 41.61185 | -71.14768 | 7954 ft | 152 kts | 290° |
| 2026-05-05 11:23 | 41.61684 | -71.16014 | 7960 ft | 152 kts | 290° |
| 2026-05-05 11:24 | 41.62182 | -71.17260 | 7952 ft | 152 kts | 290° |
| 2026-05-05 11:24 | 41.62680 | -71.18507 | 7949 ft | 152 kts | 290° |
| 2026-05-05 11:24 | 41.63174 | -71.19740 | 7949 ft | 152 kts | 290° |
| 2026-05-05 11:24 | 41.63672 | -71.20989 | 7949 ft | 152 kts | 290° |
| 2026-05-05 11:25 | 41.64169 | -71.22238 | 7946 ft | 153 kts | 290° |
| 2026-05-05 11:25 | 41.64669 | -71.23491 | 7945 ft | 153 kts | 290° |
| 2026-05-05 11:25 | 41.65170 | -71.24745 | 7946 ft | 152 kts | 290° |
| 2026-05-05 11:25 | 41.65669 | -71.25995 | 7945 ft | 152 kts | 290° |
| 2026-05-05 11:26 | 41.66166 | -71.27243 | 7946 ft | 152 kts | 290° |
| 2026-05-05 11:26 | 41.66664 | -71.28497 | 7944 ft | 152 kts | 290° |
| 2026-05-05 11:26 | 41.67162 | -71.29747 | 7946 ft | 152 kts | 289° |
| 2026-05-05 11:26 | 41.67659 | -71.30996 | 7946 ft | 152 kts | 289° |
| 2026-05-05 11:27 | 41.68156 | -71.32247 | 7945 ft | 152 kts | 289° |
| 2026-05-05 11:27 | 41.68653 | -71.33496 | 7946 ft | 152 kts | 289° |
| 2026-05-05 11:27 | 41.69150 | -71.34746 | 7944 ft | 152 kts | 289° |
| 2026-05-05 11:27 | 41.69646 | -71.35994 | 7945 ft | 152 kts | 289° |
| 2026-05-05 11:28 | 41.70141 | -71.37241 | 7947 ft | 152 kts | 289° |
| 2026-05-05 11:28 | 41.70639 | -71.38495 | 7946 ft | 152 kts | 289° |
| 2026-05-05 11:28 | 41.71136 | -71.39751 | 7946 ft | 152 kts | 289° |
| 2026-05-05 11:28 | 41.71626 | -71.40986 | 7947 ft | 152 kts | 289° |
| 2026-05-05 11:29 | 41.72127 | -71.42250 | 7946 ft | 151 kts | 289° |
| 2026-05-05 11:29 | 41.72380 | -71.43543 | 7955 ft | 143 kts | 263° |
| 2026-05-05 11:29 | 41.72274 | -71.44857 | 7957 ft | 142 kts | 259° |
| 2026-05-05 11:29 | 41.72185 | -71.46181 | 7955 ft | 143 kts | 260° |
| 2026-05-05 11:30 | 41.72093 | -71.47508 | 7959 ft | 143 kts | 260° |
| 2026-05-05 11:30 | 41.72001 | -71.48837 | 7954 ft | 143 kts | 260° |
| 2026-05-05 11:30 | 41.71908 | -71.50167 | 7954 ft | 143 kts | 260° |
| 2026-05-05 11:30 | 41.71813 | -71.51498 | 7954 ft | 143 kts | 260° |
| 2026-05-05 11:31 | 41.71719 | -71.52828 | 7951 ft | 143 kts | 260° |
| 2026-05-05 11:31 | 41.71628 | -71.54149 | 7949 ft | 142 kts | 260° |
| 2026-05-05 11:31 | 41.71537 | -71.55456 | 7947 ft | 143 kts | 259° |
| 2026-05-05 11:31 | 41.71442 | -71.56797 | 7946 ft | 143 kts | 259° |
| 2026-05-05 11:32 | 41.71347 | -71.58120 | 7946 ft | 143 kts | 259° |
| 2026-05-05 11:32 | 41.71253 | -71.59443 | 7945 ft | 142 kts | 259° |
| 2026-05-05 11:32 | 41.71159 | -71.60742 | 7945 ft | 142 kts | 260° |
| 2026-05-05 11:32 | 41.71066 | -71.62060 | 7945 ft | 142 kts | 260° |
| 2026-05-05 11:33 | 41.70973 | -71.63372 | 7944 ft | 141 kts | 259° |
| 2026-05-05 11:33 | 41.70880 | -71.64680 | 7946 ft | 141 kts | 260° |
| 2026-05-05 11:33 | 41.70788 | -71.65987 | 7946 ft | 141 kts | 259° |
| 2026-05-05 11:33 | 41.70694 | -71.67292 | 7945 ft | 141 kts | 259° |
| 2026-05-05 11:34 | 41.70598 | -71.68603 | 7945 ft | 142 kts | 259° |
| 2026-05-05 11:34 | 41.70505 | -71.69917 | 7946 ft | 141 kts | 259° |
| 2026-05-05 11:34 | 41.70410 | -71.71222 | 7946 ft | 141 kts | 259° |
| 2026-05-05 11:34 | 41.70316 | -71.72517 | 7945 ft | 142 kts | 259° |
| 2026-05-05 11:35 | 41.70220 | -71.73851 | 7944 ft | 142 kts | 259° |
| 2026-05-05 11:35 | 41.70126 | -71.75154 | 7946 ft | 143 kts | 259° |
| 2026-05-05 11:35 | 41.70030 | -71.76478 | 7945 ft | 143 kts | 259° |
| 2026-05-05 11:35 | 41.69933 | -71.77804 | 7945 ft | 143 kts | 259° |
| 2026-05-05 11:36 | 41.69837 | -71.79128 | 7946 ft | 143 kts | 259° |
| 2026-05-05 11:36 | 41.69741 | -71.80451 | 7946 ft | 143 kts | 259° |
| 2026-05-05 11:36 | 41.69644 | -71.81782 | 7947 ft | 143 kts | 259° |
| 2026-05-05 11:36 | 41.69547 | -71.83105 | 7945 ft | 143 kts | 259° |
| 2026-05-05 11:37 | 41.69452 | -71.84427 | 7947 ft | 143 kts | 259° |
| 2026-05-05 11:37 | 41.69353 | -71.85755 | 7945 ft | 143 kts | 259° |
| 2026-05-05 11:37 | 41.69256 | -71.87085 | 7945 ft | 143 kts | 259° |
| 2026-05-05 11:37 | 41.69157 | -71.88412 | 7946 ft | 144 kts | 259° |
| 2026-05-05 11:38 | 41.69061 | -71.89723 | 7945 ft | 143 kts | 259° |
| 2026-05-05 11:38 | 41.68963 | -71.91064 | 7945 ft | 143 kts | 259° |
| 2026-05-05 11:38 | 41.68866 | -71.92372 | 7944 ft | 144 kts | 259° |
| 2026-05-05 11:38 | 41.68768 | -71.93702 | 7945 ft | 144 kts | 259° |
| 2026-05-05 11:39 | 41.68669 | -71.95036 | 7945 ft | 144 kts | 259° |
| 2026-05-05 11:39 | 41.68569 | -71.96371 | 7942 ft | 144 kts | 259° |
| 2026-05-05 11:39 | 41.68504 | -71.97248 | 7942 ft | 143 kts | 259° |
| 2026-05-05 11:39 | 41.68373 | -71.99015 | 7939 ft | 142 kts | 259° |
| 2026-05-05 11:40 | 41.68308 | -71.99887 | 7938 ft | 142 kts | 259° |
| 2026-05-05 11:40 | 41.68211 | -72.01200 | 7937 ft | 142 kts | 259° |
| 2026-05-05 11:40 | 41.68113 | -72.02514 | 7935 ft | 142 kts | 259° |
| 2026-05-05 11:40 | 41.67982 | -72.04257 | 7935 ft | 142 kts | 259° |
| 2026-05-05 11:41 | 41.67882 | -72.05576 | 7936 ft | 143 kts | 259° |
| 2026-05-05 11:41 | 41.67814 | -72.06474 | 7936 ft | 144 kts | 259° |
| 2026-05-05 11:41 | 41.67714 | -72.07802 | 7937 ft | 143 kts | 259° |
| 2026-05-05 11:41 | 41.67617 | -72.09107 | 7938 ft | 142 kts | 259° |
| 2026-05-05 11:42 | 41.67518 | -72.10423 | 7937 ft | 142 kts | 259° |
| 2026-05-05 11:42 | 41.67419 | -72.11743 | 7935 ft | 142 kts | 259° |
| 2026-05-05 11:42 | 41.67318 | -72.13056 | 7938 ft | 143 kts | 259° |
| 2026-05-05 11:42 | 41.67219 | -72.14377 | 7936 ft | 143 kts | 259° |
| 2026-05-05 11:43 | 41.67118 | -72.15702 | 7935 ft | 143 kts | 259° |
| 2026-05-05 11:43 | 41.67016 | -72.17022 | 7935 ft | 142 kts | 259° |
| 2026-05-05 11:43 | 41.66917 | -72.18338 | 7935 ft | 142 kts | 259° |
| 2026-05-05 11:43 | 41.66817 | -72.19654 | 7936 ft | 142 kts | 259° |
| 2026-05-05 11:44 | 41.66716 | -72.20969 | 7936 ft | 142 kts | 259° |
| 2026-05-05 11:44 | 41.66616 | -72.22288 | 7937 ft | 143 kts | 259° |
| 2026-05-05 11:44 | 41.66514 | -72.23615 | 7936 ft | 144 kts | 259° |
| 2026-05-05 11:44 | 41.66413 | -72.24929 | 7936 ft | 144 kts | 259° |
| 2026-05-05 11:45 | 41.66309 | -72.26281 | 7936 ft | 144 kts | 259° |
| 2026-05-05 11:45 | 41.66208 | -72.27596 | 7936 ft | 143 kts | 259° |
| 2026-05-05 11:45 | 41.66106 | -72.28916 | 7936 ft | 143 kts | 259° |
| 2026-05-05 11:45 | 41.66004 | -72.30235 | 7935 ft | 142 kts | 259° |
| 2026-05-05 11:46 | 41.65904 | -72.31551 | 7935 ft | 142 kts | 259° |
| 2026-05-05 11:46 | 41.65803 | -72.32862 | 7937 ft | 142 kts | 259° |
| 2026-05-05 11:46 | 41.65699 | -72.34176 | 7937 ft | 142 kts | 259° |
| 2026-05-05 11:46 | 41.65597 | -72.35495 | 7938 ft | 142 kts | 259° |
| 2026-05-05 11:47 | 41.65495 | -72.36814 | 7938 ft | 143 kts | 259° |
| 2026-05-05 11:47 | 41.65390 | -72.38137 | 7938 ft | 142 kts | 259° |
| 2026-05-05 11:47 | 41.65289 | -72.39455 | 7937 ft | 143 kts | 259° |
| 2026-05-05 11:47 | 41.65187 | -72.40774 | 7938 ft | 142 kts | 259° |
| 2026-05-05 11:48 | 41.64980 | -72.43408 | 7936 ft | 142 kts | 259° |
| 2026-05-05 11:48 | 41.64876 | -72.44724 | 7932 ft | 141 kts | 259° |
| 2026-05-05 11:48 | 41.64775 | -72.46026 | 7933 ft | 141 kts | 259° |
| 2026-05-05 11:49 | 41.64672 | -72.47331 | 7932 ft | 142 kts | 259° |
| 2026-05-05 11:49 | 41.64567 | -72.48646 | 7930 ft | 142 kts | 259° |
| 2026-05-05 11:49 | 41.64465 | -72.49945 | 7928 ft | 142 kts | 259° |
| 2026-05-05 11:49 | 41.64362 | -72.51260 | 7927 ft | 142 kts | 260° |
| 2026-05-05 11:50 | 41.64257 | -72.52570 | 7928 ft | 142 kts | 259° |
| 2026-05-05 11:50 | 41.64154 | -72.53871 | 7926 ft | 141 kts | 259° |
| 2026-05-05 11:50 | 41.63970 | -72.55146 | 7936 ft | 138 kts | 245° |
| 2026-05-05 11:50 | 41.63548 | -72.56304 | 7936 ft | 139 kts | 243° |
| 2026-05-05 11:51 | 41.63141 | -72.57480 | 7937 ft | 140 kts | 244° |
| 2026-05-05 11:51 | 41.62737 | -72.58660 | 7936 ft | 140 kts | 244° |
| 2026-05-05 11:51 | 41.62330 | -72.59846 | 7936 ft | 140 kts | 244° |
| 2026-05-05 11:51 | 41.61921 | -72.61038 | 7933 ft | 141 kts | 244° |
| 2026-05-05 11:52 | 41.61513 | -72.62226 | 7930 ft | 140 kts | 244° |
| 2026-05-05 11:52 | 41.61109 | -72.63408 | 7930 ft | 140 kts | 243° |
| 2026-05-05 11:52 | 41.60702 | -72.64585 | 7926 ft | 139 kts | 244° |
| 2026-05-05 11:52 | 41.60297 | -72.65765 | 7929 ft | 139 kts | 243° |
| 2026-05-05 11:53 | 41.59891 | -72.66942 | 7927 ft | 140 kts | 244° |
| 2026-05-05 11:53 | 41.59484 | -72.68125 | 7927 ft | 140 kts | 244° |
| 2026-05-05 11:53 | 41.59086 | -72.69284 | 7928 ft | 139 kts | 244° |
| 2026-05-05 11:53 | 41.58682 | -72.70456 | 7928 ft | 139 kts | 243° |
| 2026-05-05 11:54 | 41.58276 | -72.71627 | 7928 ft | 139 kts | 244° |
| 2026-05-05 11:54 | 41.57870 | -72.72805 | 7927 ft | 139 kts | 244° |
| 2026-05-05 11:54 | 41.57465 | -72.73976 | 7926 ft | 138 kts | 244° |
| 2026-05-05 11:54 | 41.57066 | -72.75141 | 7927 ft | 138 kts | 244° |
| 2026-05-05 11:55 | 41.56665 | -72.76302 | 7927 ft | 138 kts | 244° |
| 2026-05-05 11:55 | 41.56267 | -72.77450 | 7929 ft | 139 kts | 244° |
| 2026-05-05 11:55 | 41.55854 | -72.78646 | 7928 ft | 140 kts | 244° |
| 2026-05-05 11:55 | 41.55453 | -72.79806 | 7927 ft | 140 kts | 244° |
| 2026-05-05 11:56 | 41.55044 | -72.80982 | 7927 ft | 140 kts | 244° |
| 2026-05-05 11:56 | 41.54636 | -72.82163 | 7929 ft | 140 kts | 244° |
| 2026-05-05 11:56 | 41.54228 | -72.83342 | 7928 ft | 140 kts | 244° |
| 2026-05-05 11:56 | 41.53819 | -72.84525 | 7928 ft | 140 kts | 244° |
| 2026-05-05 11:57 | 41.53411 | -72.85700 | 7930 ft | 140 kts | 244° |
| 2026-05-05 11:57 | 41.53001 | -72.86883 | 7926 ft | 141 kts | 244° |
| 2026-05-05 11:57 | 41.52592 | -72.88065 | 7927 ft | 140 kts | 244° |
| 2026-05-05 11:57 | 41.52181 | -72.89248 | 7928 ft | 140 kts | 244° |
| 2026-05-05 11:58 | 41.51772 | -72.90428 | 7927 ft | 140 kts | 244° |
| 2026-05-05 11:58 | 41.51363 | -72.91607 | 7928 ft | 140 kts | 244° |
| 2026-05-05 11:58 | 41.50953 | -72.92786 | 7927 ft | 140 kts | 244° |
| 2026-05-05 11:58 | 41.50543 | -72.93967 | 7927 ft | 140 kts | 244° |
| 2026-05-05 11:59 | 41.50138 | -72.95127 | 7927 ft | 139 kts | 244° |
| 2026-05-05 11:59 | 41.49731 | -72.96299 | 7928 ft | 139 kts | 244° |
| 2026-05-05 11:59 | 41.49325 | -72.97463 | 7927 ft | 138 kts | 244° |
| 2026-05-05 11:59 | 41.48920 | -72.98625 | 7926 ft | 138 kts | 244° |
| 2026-05-05 12:00 | 41.48517 | -72.99785 | 7937 ft | 138 kts | 244° |
| 2026-05-05 12:00 | 41.48113 | -73.00943 | 7936 ft | 137 kts | 244° |
| 2026-05-05 12:00 | 41.47712 | -73.02096 | 7938 ft | 137 kts | 244° |
| 2026-05-05 12:00 | 41.47306 | -73.03256 | 7939 ft | 138 kts | 244° |
| 2026-05-05 12:01 | 41.46899 | -73.04421 | 7938 ft | 139 kts | 244° |
| 2026-05-05 12:01 | 41.46492 | -73.05586 | 7934 ft | 138 kts | 244° |
| 2026-05-05 12:01 | 41.46094 | -73.06733 | 7941 ft | 137 kts | 244° |
| 2026-05-05 12:01 | 41.45693 | -73.07887 | 7938 ft | 137 kts | 244° |
| 2026-05-05 12:02 | 41.45288 | -73.09041 | 7938 ft | 138 kts | 244° |
| 2026-05-05 12:02 | 41.44886 | -73.10186 | 7938 ft | 138 kts | 244° |
| 2026-05-05 12:02 | 41.44482 | -73.11342 | 7937 ft | 137 kts | 244° |
| 2026-05-05 12:02 | 41.44078 | -73.12502 | 7936 ft | 138 kts | 244° |
| 2026-05-05 12:03 | 41.43672 | -73.13663 | 7937 ft | 138 kts | 243° |
| 2026-05-05 12:03 | 41.43267 | -73.14819 | 7937 ft | 137 kts | 244° |
| 2026-05-05 12:03 | 41.42859 | -73.15983 | 7937 ft | 139 kts | 244° |
| 2026-05-05 12:03 | 41.42452 | -73.17145 | 7937 ft | 137 kts | 244° |
| 2026-05-05 12:04 | 41.42047 | -73.18302 | 7939 ft | 138 kts | 244° |
| 2026-05-05 12:04 | 41.41645 | -73.19449 | 7940 ft | 138 kts | 243° |
| 2026-05-05 12:04 | 41.41239 | -73.20605 | 7953 ft | 138 kts | 243° |
| 2026-05-05 12:04 | 41.40828 | -73.21771 | 7949 ft | 139 kts | 243° |
| 2026-05-05 12:05 | 41.40418 | -73.22936 | 7949 ft | 139 kts | 243° |
| 2026-05-05 12:05 | 41.40008 | -73.24106 | 7946 ft | 139 kts | 243° |
| 2026-05-05 12:05 | 41.39600 | -73.25265 | 7943 ft | 138 kts | 242° |
| 2026-05-05 12:05 | 41.39194 | -73.26423 | 7947 ft | 138 kts | 242° |
| 2026-05-05 12:06 | 41.38787 | -73.27578 | 7944 ft | 137 kts | 243° |
| 2026-05-05 12:06 | 41.38382 | -73.28730 | 7946 ft | 138 kts | 243° |
| 2026-05-05 12:06 | 41.37973 | -73.29890 | 7945 ft | 139 kts | 243° |
| 2026-05-05 12:06 | 41.37570 | -73.31037 | 7945 ft | 139 kts | 243° |
| 2026-05-05 12:07 | 41.37158 | -73.32203 | 7942 ft | 139 kts | 242° |
| 2026-05-05 12:07 | 41.36750 | -73.33361 | 7940 ft | 138 kts | 242° |
| 2026-05-05 12:07 | 41.36343 | -73.34517 | 7939 ft | 139 kts | 243° |
| 2026-05-05 12:07 | 41.35932 | -73.35680 | 7937 ft | 138 kts | 243° |
| 2026-05-05 12:08 | 41.35523 | -73.36838 | 7937 ft | 138 kts | 243° |
| 2026-05-05 12:08 | 41.35113 | -73.37997 | 7937 ft | 138 kts | 243° |
| 2026-05-05 12:08 | 41.34707 | -73.39156 | 7936 ft | 138 kts | 243° |
| 2026-05-05 12:08 | 41.34296 | -73.40316 | 7936 ft | 139 kts | 243° |
| 2026-05-05 12:09 | 41.33884 | -73.41481 | 7938 ft | 139 kts | 242° |
| 2026-05-05 12:09 | 41.33470 | -73.42647 | 7936 ft | 140 kts | 243° |
| 2026-05-05 12:09 | 41.33056 | -73.43817 | 7935 ft | 140 kts | 243° |
| 2026-05-05 12:09 | 41.32649 | -73.44968 | 7936 ft | 139 kts | 243° |
| 2026-05-05 12:10 | 41.32236 | -73.46138 | 7936 ft | 140 kts | 243° |
| 2026-05-05 12:10 | 41.31824 | -73.47303 | 7937 ft | 139 kts | 243° |
| 2026-05-05 12:10 | 41.31411 | -73.48468 | 7936 ft | 139 kts | 243° |
| 2026-05-05 12:10 | 41.31003 | -73.49622 | 7938 ft | 138 kts | 243° |
| 2026-05-05 12:11 | 41.30591 | -73.50779 | 7937 ft | 139 kts | 243° |
| 2026-05-05 12:11 | 41.30179 | -73.51940 | 7936 ft | 138 kts | 243° |
| 2026-05-05 12:11 | 41.29769 | -73.53099 | 7935 ft | 138 kts | 243° |
| 2026-05-05 12:11 | 41.29357 | -73.54259 | 7939 ft | 139 kts | 243° |
| 2026-05-05 12:12 | 41.28899 | -73.55386 | 7939 ft | 139 kts | 230° |
| 2026-05-05 12:12 | 41.28145 | -73.56191 | 7944 ft | 139 kts | 220° |
| 2026-05-05 12:12 | 41.27401 | -73.57009 | 7942 ft | 138 kts | 224° |
| 2026-05-05 12:12 | 41.26681 | -73.57866 | 7939 ft | 139 kts | 224° |
| 2026-05-05 12:13 | 41.25967 | -73.58732 | 7940 ft | 139 kts | 225° |
| 2026-05-05 12:13 | 41.25253 | -73.59599 | 7940 ft | 139 kts | 225° |
| 2026-05-05 12:13 | 41.24551 | -73.60453 | 7937 ft | 138 kts | 225° |
| 2026-05-05 12:13 | 41.23843 | -73.61318 | 7935 ft | 138 kts | 225° |
| 2026-05-05 12:14 | 41.23134 | -73.62182 | 7934 ft | 138 kts | 225° |
| 2026-05-05 12:14 | 41.22422 | -73.63046 | 7932 ft | 138 kts | 225° |
| 2026-05-05 12:14 | 41.21710 | -73.63913 | 7932 ft | 139 kts | 225° |
| 2026-05-05 12:14 | 41.21001 | -73.64775 | 7931 ft | 139 kts | 225° |
| 2026-05-05 12:15 | 41.20289 | -73.65641 | 7929 ft | 139 kts | 224° |
| 2026-05-05 12:15 | 41.19579 | -73.66503 | 7925 ft | 138 kts | 225° |
| 2026-05-05 12:15 | 41.18878 | -73.67356 | 7929 ft | 136 kts | 225° |
| 2026-05-05 12:15 | 41.18179 | -73.68206 | 7930 ft | 136 kts | 225° |
| 2026-05-05 12:16 | 41.17490 | -73.69042 | 7929 ft | 136 kts | 224° |
| 2026-05-05 12:16 | 41.16793 | -73.69890 | 7930 ft | 135 kts | 225° |
| 2026-05-05 12:16 | 41.16100 | -73.70732 | 7932 ft | 136 kts | 225° |
| 2026-05-05 12:16 | 41.15398 | -73.71584 | 7933 ft | 137 kts | 224° |
| 2026-05-05 12:17 | 41.14690 | -73.72441 | 7933 ft | 138 kts | 224° |
| 2026-05-05 12:17 | 41.13983 | -73.73297 | 7926 ft | 138 kts | 224° |
| 2026-05-05 12:17 | 41.13279 | -73.74151 | 7929 ft | 137 kts | 224° |
| 2026-05-05 12:17 | 41.12573 | -73.75009 | 7929 ft | 137 kts | 224° |
| 2026-05-05 12:18 | 41.11867 | -73.75863 | 7929 ft | 137 kts | 224° |
| 2026-05-05 12:18 | 41.11166 | -73.76713 | 7929 ft | 137 kts | 224° |
| 2026-05-05 12:18 | 41.10457 | -73.77570 | 7929 ft | 138 kts | 224° |
| 2026-05-05 12:18 | 41.09745 | -73.78431 | 7927 ft | 139 kts | 224° |
| 2026-05-05 12:19 | 41.09031 | -73.79295 | 7927 ft | 139 kts | 224° |
| 2026-05-05 12:19 | 41.08317 | -73.80159 | 7930 ft | 139 kts | 224° |
| 2026-05-05 12:19 | 41.07602 | -73.81023 | 7928 ft | 139 kts | 224° |
| 2026-05-05 12:19 | 41.06885 | -73.81889 | 7928 ft | 140 kts | 224° |
| 2026-05-05 12:20 | 41.06162 | -73.82763 | 7925 ft | 141 kts | 224° |
| 2026-05-05 12:20 | 41.05439 | -73.83636 | 7929 ft | 141 kts | 224° |
| 2026-05-05 12:20 | 41.04718 | -73.84506 | 7927 ft | 140 kts | 224° |
| 2026-05-05 12:20 | 41.03999 | -73.85375 | 7928 ft | 140 kts | 224° |
| 2026-05-05 12:21 | 41.03279 | -73.86244 | 7926 ft | 140 kts | 224° |
| 2026-05-05 12:21 | 41.02558 | -73.87116 | 7928 ft | 140 kts | 224° |
| 2026-05-05 12:21 | 41.01835 | -73.87986 | 7927 ft | 141 kts | 224° |
| 2026-05-05 12:21 | 41.01123 | -73.88847 | 7923 ft | 131 kts | 224° |
| 2026-05-05 12:22 | 41.00568 | -73.89526 | 7900 ft | 90 kts | 226° |
| 2026-05-05 12:22 | 41.00110 | -73.90087 | 7919 ft | 100 kts | 225° |
| 2026-05-05 12:22 | 40.99547 | -73.90767 | 7899 ft | 119 kts | 225° |
| 2026-05-05 12:22 | 40.98881 | -73.91568 | 7730 ft | 138 kts | 224° |
| 2026-05-05 12:23 | 40.98141 | -73.92444 | 7555 ft | 147 kts | 223° |
| 2026-05-05 12:23 | 40.97367 | -73.93363 | 7373 ft | 151 kts | 224° |
| 2026-05-05 12:23 | 40.96581 | -73.94304 | 7177 ft | 153 kts | 224° |
| 2026-05-05 12:23 | 40.95813 | -73.95227 | 6936 ft | 135 kts | 225° |
| 2026-05-05 12:24 | 40.95209 | -73.95974 | 6653 ft | 106 kts | 225° |
| 2026-05-05 12:24 | 40.94703 | -73.96584 | 6359 ft | 93 kts | 226° |
| 2026-05-05 12:24 | 40.94242 | -73.97142 | 6081 ft | 87 kts | 226° |
| 2026-05-05 12:24 | 40.93806 | -73.97666 | 5807 ft | 83 kts | 226° |
| 2026-05-05 12:25 | 40.93387 | -73.98172 | 5539 ft | 81 kts | 226° |
| 2026-05-05 12:25 | 40.92972 | -73.98673 | 5274 ft | 80 kts | 226° |
| 2026-05-05 12:25 | 40.92562 | -73.99167 | 5019 ft | 79 kts | 226° |
| 2026-05-05 12:25 | 40.92157 | -73.99653 | 4766 ft | 79 kts | 225° |
| 2026-05-05 12:26 | 40.91749 | -74.00144 | 4513 ft | 80 kts | 226° |
| 2026-05-05 12:26 | 40.91335 | -74.00645 | 4259 ft | 81 kts | 225° |
| 2026-05-05 12:26 | 40.90916 | -74.01145 | 4005 ft | 82 kts | 225° |
| 2026-05-05 12:26 | 40.90498 | -74.01646 | 3768 ft | 82 kts | 225° |
| 2026-05-05 12:27 | 40.90074 | -74.02155 | 3519 ft | 82 kts | 226° |
| 2026-05-05 12:27 | 40.89570 | -74.02760 | 3319 ft | 113 kts | 225° |
| 2026-05-05 12:27 | 40.88940 | -74.03510 | 3121 ft | 128 kts | 224° |
| 2026-05-05 12:27 | 40.88253 | -74.04319 | 2910 ft | 136 kts | 224° |
| 2026-05-05 12:28 | 40.87784 | -74.04878 | 2759 ft | 139 kts | 224° |
| 2026-05-05 12:28 | 40.87058 | -74.05745 | 2523 ft | 142 kts | 223° |
| 2026-05-05 12:28 | 40.86261 | -74.06461 | 2510 ft | 137 kts | 203° |
| 2026-05-05 12:28 | 40.85360 | -74.06848 | 2508 ft | 135 kts | 202° |
| 2026-05-05 12:29 | 40.84485 | -74.07268 | 2504 ft | 133 kts | 204° |
| 2026-05-05 12:29 | 40.83616 | -74.07683 | 2503 ft | 133 kts | 202° |
| 2026-05-05 12:29 | 40.82744 | -74.08085 | 2502 ft | 132 kts | 202° |
| 2026-05-05 12:29 | 40.81883 | -74.08486 | 2514 ft | 131 kts | 203° |
| 2026-05-05 12:30 | 40.81017 | -74.08895 | 2511 ft | 133 kts | 201° |
| 2026-05-05 12:30 | 40.80101 | -74.09133 | 2519 ft | 136 kts | 191° |
| 2026-05-05 12:30 | 40.79146 | -74.09148 | 2523 ft | 140 kts | 181° |
| 2026-05-05 12:30 | 40.78185 | -74.08900 | 2526 ft | 143 kts | 170° |
| 2026-05-05 12:31 | 40.77253 | -74.08398 | 2520 ft | 146 kts | 159° |
| 2026-05-05 12:31 | 40.76398 | -74.07647 | 2530 ft | 149 kts | 148° |
| 2026-05-05 12:31 | 40.75630 | -74.06661 | 2405 ft | 158 kts | 140° |
| 2026-05-05 12:31 | 40.74728 | -74.05845 | 2248 ft | 156 kts | 157° |
| 2026-05-05 12:32 | 40.73722 | -74.05455 | 2083 ft | 149 kts | 170° |
| 2026-05-05 12:32 | 40.72678 | -74.05472 | 1873 ft | 146 kts | 185° |
| 2026-05-05 12:32 | 40.71777 | -74.05851 | 1647 ft | 130 kts | 200° |
| 2026-05-05 12:32 | 40.71034 | -74.06459 | 1422 ft | 124 kts | 221° |
| 2026-05-05 12:33 | 40.70459 | -74.07242 | 1210 ft | 115 kts | 231° |
| 2026-05-05 12:33 | 40.70051 | -74.08129 | 1003 ft | 112 kts | 243° |
| 2026-05-05 12:33 | 40.69836 | -74.08982 | 1029 ft | 92 kts | 251° |
| 2026-05-05 12:33 | 40.69732 | -74.09867 | 1041 ft | 106 kts | 261° |
| 2026-05-05 12:34 | 40.69764 | -74.10898 | 1021 ft | 119 kts | 270° |
| 2026-05-05 12:34 | 40.69870 | -74.12047 | 905 ft | 129 kts | 271° |
| 2026-05-05 12:34 | 40.69961 | -74.13234 | 653 ft | 125 kts | 270° |
| 2026-05-05 12:34 | 40.70039 | -74.14339 | 321 ft | 115 kts | 270° |
| 2026-05-05 12:35 | 40.70102 | -74.15353 | 113 ft | 108 kts | 271° |
| 2026-05-05 12:35 | 40.70165 | -74.16294 | 20 ft | 93 kts | 271° |
| 2026-05-05 12:35 | 40.70213 | -74.17000 | 19 ft | 58 kts | 276° |
| 2026-05-05 12:35 | 40.70231 | -74.17318 | 20 ft | 20 kts | 269° |
| 2026-05-05 12:36 | 40.70123 | -74.17332 | 19 ft | 22 kts | 110° |
| 2026-05-05 12:36 | 40.70102 | -74.17053 | 19 ft | 38 kts | 95° |
| 2026-05-05 12:36 | 40.70079 | -74.16705 | 18 ft | 28 kts | 93° |
| 2026-05-05 12:36 | 40.70057 | -74.16533 | 18 ft | 12 kts | 152° |
| 2026-05-05 12:37 | 40.69966 | -74.16561 | 18 ft | 18 kts | 207° |
| 2026-05-05 12:37 | 40.69813 | -74.16658 | 18 ft | 30 kts | 204° |
| 2026-05-05 12:37 | 40.69593 | -74.16800 | 19 ft | 39 kts | 206° |
| 2026-05-05 12:37 | 40.69324 | -74.16968 | 19 ft | 46 kts | 206° |
| 2026-05-05 12:38 | 40.69025 | -74.17161 | 18 ft | 50 kts | 206° |
| 2026-05-05 12:38 | 40.68706 | -74.17366 | 20 ft | 51 kts | 205° |
| 2026-05-05 12:38 | 40.68411 | -74.17625 | 19 ft | 52 kts | 227° |
| 2026-05-05 12:38 | 40.68104 | -74.17866 | 19 ft | 52 kts | 206° |
| 2026-05-05 12:39 | 40.67810 | -74.18055 | 19 ft | 37 kts | 205° |
| 2026-05-05 12:39 | 40.67622 | -74.18173 | 19 ft | 28 kts | 205° |
| 2026-05-05 12:39 | 40.67472 | -74.18268 | 19 ft | 9 kts | 201° |
| 2026-05-05 12:39 | 40.67436 | -74.18291 | 19 ft | 7 kts | 228° |
| 2026-05-05 12:40 | 40.67463 | -74.18345 | 19 ft | 2 kts | 343° |
| 2026-05-05 12:40 | 40.67470 | -74.18350 | 19 ft | 0 kts | 342° |